createdAt,value
2023-03-14T00:01:54.761Z,5.82
2023-03-14T00:04:21.226Z,4.43
2023-03-14T00:06:47.875Z,4.90
2023-03-14T00:09:14.756Z,5.50
2023-03-14T00:11:41.708Z,7.00
2023-03-14T00:14:08.081Z,4.10
2023-03-14T00:16:34.351Z,5.38
2023-03-14T00:19:00.987Z,4.45
2023-03-14T00:21:27.435Z,5.05
2023-03-14T00:23:54.053Z,5.68
2023-03-14T00:26:21.442Z,4.95
2023-03-14T00:28:48.378Z,4.75
2023-03-14T00:31:15.621Z,3.97
2023-03-14T00:33:42.678Z,3.08
2023-03-14T00:36:10.897Z,4.40
2023-03-14T00:38:37.495Z,2.65
2023-03-14T00:41:04.817Z,5.15
2023-03-14T00:43:32.034Z,3.20
2023-03-14T00:45:58.638Z,4.85
2023-03-14T00:48:25.165Z,2.75
2023-03-14T00:50:51.601Z,4.00
2023-03-14T00:53:18.104Z,3.03
2023-03-14T00:55:44.595Z,3.80
2023-03-14T00:58:11.458Z,4.93
2023-03-14T01:00:37.815Z,2.95
2023-03-14T01:03:04.870Z,3.35
2023-03-14T01:05:31.624Z,3.20
2023-03-14T01:07:58.208Z,5.07
2023-03-14T01:10:24.992Z,3.83
2023-03-14T01:12:51.382Z,4.32
2023-03-14T01:15:17.847Z,4.63
2023-03-14T01:17:44.427Z,5.85
2023-03-14T01:20:11.999Z,4.32
2023-03-14T01:22:42.108Z,4.25
2023-03-14T01:25:09.769Z,3.60
2023-03-14T01:27:36.133Z,4.50
2023-03-14T01:30:03.143Z,4.35
2023-03-14T01:32:29.474Z,3.80
2023-03-14T01:34:55.823Z,3.45
2023-03-14T01:37:22.203Z,5.15
2023-03-14T01:39:48.618Z,3.83
2023-03-14T01:42:15.689Z,4.00
2023-03-14T01:44:52.928Z,5.20
2023-03-14T01:47:19.437Z,2.53
2023-03-14T01:49:47.903Z,2.72
2023-03-14T01:52:17.112Z,3.97
2023-03-14T01:54:58.120Z,3.67
2023-03-14T01:57:36.877Z,6.60
2023-03-14T02:00:17.366Z,3.45
2023-03-14T02:02:48.737Z,3.50
2023-03-14T02:05:25.692Z,4.50
2023-03-14T02:07:56.151Z,3.40
2023-03-14T02:10:24.733Z,3.95
2023-03-14T02:12:52.629Z,5.15
2023-03-14T02:15:19.160Z,5.90
2023-03-14T02:17:46.267Z,3.97
2023-03-14T02:20:24.387Z,4.95
2023-03-14T02:22:50.837Z,4.95
2023-03-14T02:25:26.042Z,4.63
2023-03-14T02:27:52.406Z,3.35
2023-03-14T02:30:23.080Z,3.63
2023-03-14T02:32:52.861Z,4.78
2023-03-14T02:35:21.721Z,6.18
2023-03-14T02:37:57.873Z,5.78
2023-03-14T02:40:24.702Z,3.17
2023-03-14T02:42:51.086Z,3.63
2023-03-14T02:45:17.425Z,5.05
2023-03-14T02:48:04.024Z,5.38
2023-03-14T02:50:31.679Z,4.88
2023-03-14T02:52:58.027Z,3.67
2023-03-14T02:55:25.074Z,3.40
2023-03-14T02:57:51.587Z,2.92
2023-03-14T03:00:18.205Z,4.35
2023-03-14T03:02:44.563Z,4.03
2023-03-14T03:05:11.074Z,3.67
2023-03-14T03:07:37.421Z,3.72
2023-03-14T03:10:04.133Z,3.65
2023-03-14T03:12:30.443Z,5.00
2023-03-14T03:14:56.738Z,4.13
2023-03-14T03:17:23.050Z,3.25
2023-03-14T03:19:49.394Z,5.93
2023-03-14T03:22:15.813Z,4.95
2023-03-14T03:24:42.101Z,4.95
2023-03-14T03:27:08.466Z,2.55
2023-03-14T03:29:34.790Z,4.50
2023-03-14T03:32:01.182Z,4.03
2023-03-14T03:34:28.549Z,3.97
2023-03-14T03:36:57.113Z,4.78
2023-03-14T03:39:23.443Z,4.18
2023-03-14T03:41:49.725Z,4.63
2023-03-14T03:44:16.067Z,5.72
2023-03-14T03:46:42.365Z,4.10
2023-03-14T03:49:08.674Z,4.40
2023-03-14T03:51:34.966Z,6.30
2023-03-14T03:54:01.281Z,3.17
2023-03-14T03:56:27.545Z,3.80
2023-03-14T03:58:53.958Z,3.08
2023-03-14T04:01:20.226Z,2.92
2023-03-14T04:03:46.650Z,7.15
2023-03-14T04:06:13.759Z,3.13
2023-03-14T04:08:41.787Z,2.10
2023-03-14T04:11:08.621Z,2.30
2023-03-14T04:13:35.046Z,3.20
2023-03-14T04:16:01.660Z,1.95
2023-03-14T04:18:28.441Z,4.93
2023-03-14T04:20:55.698Z,1.77
2023-03-14T04:23:24.510Z,2.05
2023-03-14T04:25:52.646Z,1.48
2023-03-14T04:28:19.102Z,2.45
2023-03-14T04:30:45.447Z,2.28
2023-03-14T04:33:13.635Z,2.60
2023-03-14T04:35:40.012Z,2.53
2023-03-14T04:38:06.415Z,3.30
2023-03-14T04:40:32.762Z,2.45
2023-03-14T04:42:59.199Z,3.20
2023-03-14T04:45:25.504Z,3.45
2023-03-14T04:47:51.881Z,2.80
2023-03-14T04:50:18.287Z,1.30
2023-03-14T04:52:44.784Z,2.97
2023-03-14T04:55:11.081Z,2.80
2023-03-14T04:57:37.430Z,3.00
2023-03-14T05:00:08.226Z,2.80
2023-03-14T05:02:35.470Z,4.55
2023-03-14T05:05:02.024Z,2.42
2023-03-14T05:07:28.298Z,3.90
2023-03-14T05:09:54.658Z,1.95
2023-03-14T05:12:21.674Z,2.85
2023-03-14T05:14:48.009Z,3.03
2023-03-14T05:17:15.453Z,3.10
2023-03-14T05:19:42.078Z,2.78
2023-03-14T05:22:08.479Z,5.70
2023-03-14T05:24:35.114Z,3.08
2023-03-14T05:27:01.407Z,2.85
2023-03-14T05:29:27.725Z,4.10
2023-03-14T05:31:54.114Z,2.20
2023-03-14T05:34:20.584Z,2.95
2023-03-14T05:36:46.951Z,1.98
2023-03-14T05:39:13.350Z,2.38
2023-03-14T05:41:39.888Z,1.20
2023-03-14T05:44:06.286Z,5.43
2023-03-14T05:46:32.627Z,1.27
2023-03-14T05:48:59.253Z,3.05
2023-03-14T05:51:26.102Z,1.67
2023-03-14T05:53:52.638Z,2.08
2023-03-14T05:56:18.961Z,1.27
2023-03-14T05:58:45.446Z,1.73
2023-03-14T06:01:11.773Z,2.60
2023-03-14T06:03:38.105Z,1.35
2023-03-14T06:06:04.559Z,2.75
2023-03-14T06:08:31.246Z,1.45
2023-03-14T06:10:58.250Z,6.82
2023-03-14T06:13:24.540Z,1.42
2023-03-14T06:15:50.824Z,2.33
2023-03-14T06:18:17.210Z,3.75
2023-03-14T06:20:43.535Z,1.33
2023-03-14T06:23:09.869Z,2.78
2023-03-14T06:25:36.661Z,3.03
2023-03-14T06:28:02.926Z,2.78
2023-03-14T06:30:29.229Z,2.33
2023-03-14T06:32:56.558Z,4.80
2023-03-14T06:35:23.665Z,2.35
2023-03-14T06:37:49.977Z,4.93
2023-03-14T06:40:18.949Z,3.10
2023-03-14T06:42:45.685Z,3.45
2023-03-14T06:45:12.076Z,5.35
2023-03-14T06:47:39.248Z,2.58
2023-03-14T06:50:10.092Z,2.95
2023-03-14T06:52:36.955Z,3.65
2023-03-14T06:55:03.561Z,4.32
2023-03-14T06:57:30.211Z,3.17
2023-03-14T06:59:56.582Z,4.07
2023-03-14T07:02:35.950Z,2.28
2023-03-14T07:05:06.771Z,2.38
2023-03-14T07:07:33.254Z,4.95
2023-03-14T07:09:59.585Z,2.65
2023-03-14T07:12:25.850Z,3.92
2023-03-14T07:14:52.181Z,8.55
2023-03-14T07:17:18.526Z,1.55
2023-03-14T07:19:44.824Z,1.85
2023-03-14T07:22:11.101Z,4.88
2023-03-14T07:24:37.441Z,1.60
2023-03-14T07:27:03.828Z,2.72
2023-03-14T07:29:30.115Z,2.85
2023-03-14T07:31:56.540Z,3.25
2023-03-14T07:34:22.886Z,3.00
2023-03-14T07:36:49.393Z,3.00
2023-03-14T07:39:16.161Z,1.45
2023-03-14T07:41:42.501Z,1.98
2023-03-14T07:44:08.872Z,4.32
2023-03-14T07:46:35.364Z,3.92
2023-03-14T07:49:01.778Z,2.55
2023-03-14T07:51:28.289Z,1.83
2023-03-14T07:53:54.823Z,2.45
2023-03-14T07:56:21.119Z,3.53
2023-03-14T07:58:47.603Z,5.90
2023-03-14T08:01:14.011Z,1.63
2023-03-14T08:03:40.458Z,1.70
2023-03-14T08:06:07.076Z,2.65
2023-03-14T08:08:33.429Z,3.33
2023-03-14T08:11:06.780Z,2.20
2023-03-14T08:13:33.659Z,2.30
2023-03-14T08:16:00.220Z,1.85
2023-03-14T08:18:26.635Z,2.28
2023-03-14T08:20:53.188Z,2.33
2023-03-14T08:23:19.799Z,3.05
2023-03-14T08:25:46.325Z,2.00
2023-03-14T08:28:12.713Z,2.95
2023-03-14T08:30:39.083Z,2.42
2023-03-14T08:33:05.734Z,3.00
2023-03-14T08:35:32.124Z,1.42
2023-03-14T08:37:58.622Z,1.35
2023-03-14T08:40:25.152Z,0.90
2023-03-14T08:42:51.589Z,2.58
2023-03-14T08:45:18.203Z,1.77
2023-03-14T08:47:45.185Z,5.38
2023-03-14T08:50:15.952Z,1.45
2023-03-14T08:52:42.900Z,1.67
2023-03-14T08:55:10.341Z,2.30
2023-03-14T08:57:37.460Z,1.45
2023-03-14T09:00:09.079Z,1.13
2023-03-14T09:02:35.417Z,1.45
2023-03-14T09:05:01.743Z,1.77
2023-03-14T09:07:28.074Z,0.40
2023-03-14T09:09:54.590Z,1.88
2023-03-14T09:12:20.967Z,1.77
2023-03-14T09:14:47.396Z,1.23
2023-03-14T09:17:13.808Z,0.82
2023-03-14T09:19:40.246Z,0.95
2023-03-14T09:22:06.813Z,1.38
2023-03-14T09:24:33.312Z,0.70
2023-03-14T09:26:59.594Z,0.95
2023-03-14T09:29:25.975Z,0.77
2023-03-14T09:31:52.505Z,1.02
2023-03-14T09:34:19.087Z,0.95
2023-03-14T09:36:45.587Z,1.15
2023-03-14T09:39:14.697Z,1.55
2023-03-14T09:41:45.355Z,1.80
2023-03-14T09:44:22.110Z,1.60
2023-03-14T09:46:51.346Z,1.02
2023-03-14T09:49:22.712Z,1.15
2023-03-14T09:51:50.764Z,2.83
2023-03-14T09:54:24.861Z,1.33
2023-03-14T09:56:51.807Z,1.70
2023-03-14T09:59:18.337Z,0.80
2023-03-14T10:01:44.771Z,0.80
2023-03-14T10:04:14.514Z,1.27
2023-03-14T10:06:41.098Z,1.95
2023-03-14T10:09:09.994Z,1.08
2023-03-14T10:11:36.378Z,1.52
2023-03-14T10:14:05.885Z,1.60
2023-03-14T10:16:36.945Z,1.60
2023-03-14T10:19:04.736Z,1.60
2023-03-14T10:21:31.733Z,2.10
2023-03-14T10:24:16.852Z,1.42
2023-03-14T10:26:43.467Z,3.05
2023-03-14T10:29:12.584Z,1.45
2023-03-14T10:31:48.223Z,1.38
2023-03-14T10:34:17.536Z,1.20
2023-03-14T10:36:43.968Z,2.03
2023-03-14T10:39:26.719Z,2.15
2023-03-14T10:42:02.657Z,1.35
2023-03-14T10:44:29.741Z,0.95
2023-03-14T10:47:05.595Z,0.75
2023-03-14T10:49:36.960Z,1.58
2023-03-14T10:52:14.465Z,2.03
2023-03-14T10:54:40.841Z,0.65
2023-03-14T10:57:08.157Z,0.30
2023-03-14T10:59:39.107Z,1.70
2023-03-14T11:02:20.907Z,1.98
2023-03-14T11:05:05.936Z,1.23
2023-03-14T11:07:42.282Z,1.38
2023-03-14T11:12:57.718Z,0.95
2023-03-14T11:15:32.333Z,1.40
2023-03-14T11:18:13.290Z,1.95
2023-03-14T11:20:44.721Z,1.38
2023-03-14T11:23:14.797Z,1.42
2023-03-14T11:25:59.780Z,2.00
2023-03-14T11:28:29.188Z,3.20
2023-03-14T11:30:57.006Z,3.40
2023-03-14T11:33:27.969Z,2.38
2023-03-14T11:35:54.825Z,3.08
2023-03-14T11:38:33.181Z,3.70
2023-03-14T11:41:00.059Z,3.65
2023-03-14T11:43:43.655Z,6.05
2023-03-14T11:46:23.787Z,3.60
2023-03-14T11:49:00.345Z,4.22
2023-03-14T11:51:32.844Z,4.25
2023-03-14T11:54:03.472Z,4.05
2023-03-14T11:56:35.261Z,4.22
2023-03-14T11:59:15.089Z,3.40
2023-03-14T12:02:02.037Z,5.85
2023-03-14T12:04:49.143Z,3.97
2023-03-14T12:09:41.938Z,5.75
2023-03-14T12:12:13.620Z,6.43
2023-03-14T12:14:45.403Z,4.45
2023-03-14T12:17:20.788Z,4.43
2023-03-14T12:19:50.330Z,4.88
2023-03-14T12:22:30.872Z,6.95
2023-03-14T12:25:00.164Z,6.03
2023-03-14T12:27:42.602Z,6.50
2023-03-14T12:30:26.611Z,6.63
2023-03-14T12:33:14.333Z,5.18
2023-03-14T12:35:42.727Z,5.45
2023-03-14T12:38:12.218Z,7.57
2023-03-14T12:40:48.308Z,5.28
2023-03-14T12:43:33.866Z,4.65
2023-03-14T12:46:23.663Z,7.70
2023-03-14T12:48:58.199Z,6.72
2023-03-14T12:51:37.849Z,4.50
2023-03-14T12:54:10.723Z,6.15
2023-03-14T12:56:52.043Z,5.72
2023-03-14T12:59:35.243Z,7.35
2023-03-14T13:02:04.193Z,8.05
2023-03-14T13:04:39.708Z,6.38
2023-03-14T13:07:11.750Z,5.47
2023-03-14T13:09:51.832Z,5.65
2023-03-14T13:12:18.964Z,6.68
2023-03-14T13:14:46.521Z,5.78
2023-03-14T13:17:34.029Z,6.57
2023-03-14T13:20:10.894Z,7.15
2023-03-14T13:22:40.231Z,8.52
2023-03-14T13:25:08.279Z,7.70
2023-03-14T13:27:35.630Z,9.48
2023-03-14T13:30:25.265Z,7.40
2023-03-14T13:32:52.185Z,5.25
2023-03-14T13:35:19.878Z,7.20
2023-03-14T13:37:46.484Z,5.50
2023-03-14T13:40:20.321Z,6.25
2023-03-14T13:42:46.782Z,7.28
2023-03-14T13:45:17.586Z,6.88
2023-03-14T13:47:48.738Z,4.95
2023-03-14T13:50:19.171Z,7.15
2023-03-14T13:52:47.128Z,7.07
2023-03-14T13:55:17.957Z,7.13
2023-03-14T13:57:45.670Z,6.38
2023-03-14T14:00:22.332Z,5.60
2023-03-14T14:02:48.909Z,6.10
2023-03-14T14:05:15.279Z,5.90
2023-03-14T14:07:43.735Z,5.35
2023-03-14T14:10:12.384Z,5.80
2023-03-14T14:12:52.320Z,8.25
2023-03-14T14:15:22.001Z,6.97
2023-03-14T14:17:57.047Z,7.18
2023-03-14T14:20:27.696Z,5.55
2023-03-14T14:22:54.010Z,9.15
2023-03-14T14:25:20.395Z,6.50
2023-03-14T14:27:51.398Z,6.65
2023-03-14T14:30:17.842Z,5.93
2023-03-14T14:32:44.257Z,6.38
2023-03-14T14:35:11.970Z,6.50
2023-03-14T14:37:45.271Z,7.90
2023-03-14T14:40:17.622Z,5.80
2023-03-14T14:42:44.007Z,6.80
2023-03-14T14:45:15.931Z,6.07
2023-03-14T14:47:56.215Z,8.02
2023-03-14T14:50:39.396Z,11.55
2023-03-14T14:53:35.334Z,6.88
2023-03-14T14:56:05.067Z,7.72
2023-03-14T14:58:35.764Z,7.03
2023-03-14T15:01:08.338Z,8.10
2023-03-14T15:03:35.488Z,11.32
2023-03-14T15:06:02.714Z,6.93
2023-03-14T15:08:29.380Z,5.82
2023-03-14T15:10:56.661Z,5.57
2023-03-14T15:13:23.104Z,7.20
2023-03-14T15:15:56.553Z,7.47
2023-03-14T15:18:24.208Z,6.57
2023-03-14T15:20:51.265Z,9.05
2023-03-14T15:23:18.722Z,4.85
2023-03-14T15:25:55.471Z,8.20
2023-03-14T15:28:23.824Z,5.47
2023-03-14T15:30:51.196Z,6.97
2023-03-14T15:33:17.576Z,7.72
2023-03-14T15:35:44.002Z,8.50
2023-03-14T15:38:11.687Z,5.78
2023-03-14T15:40:38.096Z,7.28
2023-03-14T15:43:04.492Z,6.97
2023-03-14T15:45:31.124Z,6.00
2023-03-14T15:47:57.488Z,7.70
2023-03-14T15:50:24.038Z,6.07
2023-03-14T15:52:50.417Z,6.57
2023-03-14T15:55:16.790Z,5.28
2023-03-14T15:57:46.766Z,6.15
2023-03-14T16:00:18.880Z,6.15
2023-03-14T16:02:46.007Z,7.50
2023-03-14T16:05:12.834Z,7.72
2023-03-14T16:07:40.094Z,5.40
2023-03-14T16:10:07.126Z,8.50
2023-03-14T16:12:34.094Z,5.70
2023-03-14T16:15:00.674Z,8.93
2023-03-14T16:17:27.360Z,6.72
2023-03-14T16:19:53.731Z,4.10
2023-03-14T16:22:20.247Z,5.00
2023-03-14T16:24:46.731Z,6.40
2023-03-14T16:27:13.138Z,6.88
2023-03-14T16:29:39.484Z,4.47
2023-03-14T16:32:06.163Z,5.50
2023-03-14T16:34:33.095Z,6.20
2023-03-14T16:36:59.610Z,4.80
2023-03-14T16:39:28.972Z,8.63
2023-03-14T16:41:59.246Z,6.15
2023-03-14T16:44:25.893Z,5.10
2023-03-14T16:46:52.210Z,7.88
2023-03-14T16:49:18.603Z,4.53
2023-03-14T16:51:44.908Z,5.97
2023-03-14T16:54:11.291Z,5.38
2023-03-14T16:56:37.724Z,5.63
2023-03-14T16:59:04.373Z,6.07
2023-03-14T17:01:31.108Z,6.63
2023-03-14T17:03:57.754Z,4.55
2023-03-14T17:06:26.138Z,4.93
2023-03-14T17:08:53.288Z,5.90
2023-03-14T17:11:20.005Z,5.72
2023-03-14T17:13:46.465Z,7.45
2023-03-14T17:16:13.120Z,5.55
2023-03-14T17:18:39.531Z,5.35
2023-03-14T17:21:08.162Z,8.57
2023-03-14T17:23:34.950Z,6.93
2023-03-14T17:26:01.266Z,9.38
2023-03-14T17:28:28.254Z,5.13
2023-03-14T17:31:07.320Z,4.88
2023-03-14T17:33:34.350Z,6.68
2023-03-14T17:36:00.942Z,5.60
2023-03-14T17:38:29.552Z,7.40
2023-03-14T17:40:55.890Z,4.38
2023-03-14T17:43:22.493Z,6.45
2023-03-14T17:45:56.490Z,6.57
2023-03-14T17:48:22.911Z,4.13
2023-03-14T17:50:49.373Z,5.85
2023-03-14T17:53:15.841Z,4.22
2023-03-14T17:55:42.465Z,4.20
2023-03-14T17:58:08.880Z,5.57
2023-03-14T18:00:35.244Z,6.80
2023-03-14T18:03:01.881Z,6.25
2023-03-14T18:05:28.324Z,5.40
2023-03-14T18:07:54.574Z,6.18
2023-03-14T18:10:21.549Z,8.27
2023-03-14T18:12:48.002Z,6.43
2023-03-14T18:15:14.372Z,6.38
2023-03-14T18:17:41.152Z,6.90
2023-03-14T18:20:14.772Z,5.50
2023-03-14T18:22:42.071Z,7.55
2023-03-14T18:25:09.559Z,9.48
2023-03-14T18:27:36.339Z,8.82
2023-03-14T18:30:03.189Z,8.23
2023-03-14T18:32:29.575Z,8.27
2023-03-14T18:34:56.083Z,8.10
2023-03-14T18:37:22.510Z,7.32
2023-03-14T18:39:48.852Z,6.20
2023-03-14T18:42:15.252Z,9.38
2023-03-14T18:44:41.905Z,6.22
2023-03-14T18:47:08.810Z,5.25
2023-03-14T18:49:36.172Z,8.98
2023-03-14T18:52:02.693Z,11.07
2023-03-14T18:54:28.987Z,8.07
2023-03-14T18:56:55.920Z,9.82
2023-03-14T18:59:22.222Z,8.77
2023-03-14T19:01:48.590Z,6.55
2023-03-14T19:04:15.077Z,8.82
2023-03-14T19:06:41.753Z,5.85
2023-03-14T19:09:10.551Z,7.78
2023-03-14T19:11:36.902Z,7.68
2023-03-14T19:14:03.848Z,6.40
2023-03-14T19:16:30.431Z,6.97
2023-03-14T19:18:58.067Z,7.40
2023-03-14T19:21:28.580Z,8.85
2023-03-14T19:23:55.001Z,5.05
2023-03-14T19:26:21.673Z,7.80
2023-03-14T19:28:48.209Z,8.65
2023-03-14T19:31:15.814Z,7.63
2023-03-14T19:33:42.529Z,9.10
2023-03-14T19:36:18.158Z,5.95
2023-03-14T19:38:44.499Z,8.97
2023-03-14T19:41:10.799Z,8.23
2023-03-14T19:43:37.064Z,4.70
2023-03-14T19:46:05.497Z,5.85
2023-03-14T19:48:33.770Z,7.75
2023-03-14T19:51:00.450Z,7.03
2023-03-14T19:53:26.810Z,8.77
2023-03-14T19:55:53.180Z,4.80
2023-03-14T19:58:19.570Z,8.23
2023-03-14T20:00:45.978Z,10.43
2023-03-14T20:03:12.363Z,8.07
2023-03-14T20:05:39.357Z,5.55
2023-03-14T20:08:05.857Z,8.73
2023-03-14T20:10:33.355Z,6.53
2023-03-14T20:13:06.532Z,8.32
2023-03-14T20:15:35.821Z,6.90
2023-03-14T20:18:02.428Z,6.32
2023-03-14T20:20:28.898Z,10.35
2023-03-14T20:22:55.239Z,6.03
2023-03-14T20:25:22.655Z,7.07
2023-03-14T20:27:50.060Z,7.68
2023-03-14T20:30:18.649Z,7.57
2023-03-14T20:32:45.919Z,7.82
2023-03-14T20:35:13.132Z,5.43
2023-03-14T20:37:39.921Z,5.78
2023-03-14T20:40:07.333Z,7.75
2023-03-14T20:42:34.545Z,4.50
2023-03-14T20:45:00.951Z,4.53
2023-03-14T20:47:27.224Z,6.47
2023-03-14T20:49:53.667Z,4.82
2023-03-14T20:52:20.150Z,12.98
2023-03-14T20:54:46.619Z,6.43
2023-03-14T20:57:15.309Z,8.82
2023-03-14T20:59:41.600Z,6.88
2023-03-14T21:02:09.086Z,8.68
2023-03-14T21:04:35.500Z,6.63
2023-03-14T21:07:01.885Z,7.05
2023-03-14T21:09:28.259Z,4.97
2023-03-14T21:11:54.581Z,9.88
2023-03-14T21:14:22.461Z,6.88
2023-03-14T21:16:50.144Z,9.52
2023-03-14T21:19:16.539Z,4.43
2023-03-14T21:21:42.828Z,6.43
2023-03-14T21:24:09.465Z,7.68
2023-03-14T21:26:35.849Z,9.20
2023-03-14T21:29:03.261Z,7.18
2023-03-14T21:31:30.390Z,8.13
2023-03-14T21:33:56.865Z,6.78
2023-03-14T21:36:23.399Z,4.97
2023-03-14T21:38:49.839Z,6.63
2023-03-14T21:41:16.106Z,5.32
2023-03-14T21:43:43.947Z,3.92
2023-03-14T21:46:10.472Z,5.65
2023-03-14T21:48:36.783Z,7.30
2023-03-14T21:51:05.390Z,4.20
2023-03-14T21:53:32.592Z,3.95
2023-03-14T21:55:58.960Z,8.63
2023-03-14T21:58:25.305Z,6.18
2023-03-14T22:00:51.896Z,6.55
2023-03-14T22:03:19.172Z,4.97
2023-03-14T22:05:46.684Z,5.78
2023-03-14T22:08:14.142Z,6.32
2023-03-14T22:10:44.413Z,7.18
2023-03-14T22:13:11.076Z,4.82
2023-03-14T22:15:37.528Z,8.20
2023-03-14T22:18:03.885Z,4.65
2023-03-14T22:20:30.623Z,4.57
2023-03-14T22:22:56.912Z,6.95
2023-03-14T22:25:23.175Z,4.72
2023-03-14T22:27:49.521Z,6.60
2023-03-14T22:30:16.756Z,5.82
2023-03-14T22:32:43.119Z,3.80
2023-03-14T22:35:09.715Z,5.80
2023-03-14T22:37:36.865Z,9.45
2023-03-14T22:40:03.415Z,6.68
2023-03-14T22:42:29.746Z,5.55
2023-03-14T22:44:56.276Z,5.85
2023-03-14T22:47:22.558Z,4.53
2023-03-14T22:49:48.899Z,7.25
2023-03-14T22:52:15.448Z,4.43
2023-03-14T22:54:41.790Z,5.40
2023-03-14T22:57:08.124Z,6.10
2023-03-14T22:59:34.628Z,6.50
2023-03-14T23:02:00.994Z,5.13
2023-03-14T23:04:27.367Z,5.43
2023-03-14T23:06:53.979Z,7.22
2023-03-14T23:09:21.483Z,5.35
2023-03-14T23:11:47.843Z,5.78
2023-03-14T23:14:14.215Z,5.63
2023-03-14T23:16:41.192Z,6.97
2023-03-14T23:19:09.622Z,5.05
2023-03-14T23:21:35.957Z,7.75
2023-03-14T23:24:05.698Z,5.13
2023-03-14T23:26:35.545Z,6.85
2023-03-14T23:29:05.396Z,5.85
2023-03-14T23:31:32.342Z,6.00
2023-03-14T23:33:58.596Z,5.35
2023-03-14T23:36:24.992Z,6.22
2023-03-14T23:38:51.350Z,4.43
2023-03-14T23:41:17.714Z,6.15
2023-03-14T23:43:44.802Z,5.22
2023-03-14T23:46:11.618Z,5.97
2023-03-14T23:48:38.065Z,6.63
2023-03-14T23:51:05.895Z,5.82
2023-03-14T23:53:32.201Z,7.28
2023-03-14T23:55:58.649Z,5.65
2023-03-14T23:58:25.324Z,5.40
